createdAt,value
2023-10-26T00:02:26.837Z,26.60
2023-10-26T00:04:57.013Z,26.50
2023-10-26T00:07:27.263Z,26.60
2023-10-26T00:10:00.529Z,26.60
2023-10-26T00:12:31.475Z,26.70
2023-10-26T00:15:01.776Z,26.80
2023-10-26T00:17:32.250Z,26.80
2023-10-26T00:20:02.430Z,26.80
2023-10-26T00:22:32.524Z,26.80
2023-10-26T00:25:02.441Z,26.80
2023-10-26T00:27:32.511Z,26.90
2023-10-26T00:30:02.605Z,26.90
2023-10-26T00:32:32.621Z,26.90
2023-10-26T00:35:02.832Z,26.90
2023-10-26T00:37:33.626Z,27.00
2023-10-26T00:40:04.514Z,27.00
2023-10-26T00:42:35.231Z,27.00
2023-10-26T00:45:05.295Z,27.00
2023-10-26T00:47:35.952Z,27.00
2023-10-26T00:50:10.170Z,27.00
2023-10-26T00:52:42.014Z,27.10
2023-10-26T00:55:13.323Z,27.10
2023-10-26T00:57:43.876Z,27.10
2023-10-26T01:00:15.540Z,27.00
2023-10-26T01:02:47.007Z,27.00
2023-10-26T01:05:17.388Z,26.90
2023-10-26T01:07:47.432Z,26.90
2023-10-26T01:10:19.035Z,26.80
2023-10-26T01:12:50.719Z,26.80
2023-10-26T01:15:22.099Z,26.80
2023-10-26T01:17:52.489Z,26.80
2023-10-26T01:20:23.170Z,26.90
2023-10-26T01:22:54.076Z,26.90
2023-10-26T01:25:24.211Z,26.90
2023-10-26T01:27:55.823Z,26.90
2023-10-26T01:30:25.766Z,27.00
2023-10-26T01:32:55.966Z,27.10
2023-10-26T01:35:26.686Z,27.20
2023-10-26T01:37:57.580Z,27.30
2023-10-26T01:40:27.379Z,27.30
2023-10-26T01:42:58.407Z,27.40
2023-10-26T01:45:28.653Z,27.40
2023-10-26T01:48:01.395Z,27.40
2023-10-26T01:50:33.538Z,27.60
2023-10-26T01:53:04.109Z,27.70
2023-10-26T01:55:34.221Z,27.90
2023-10-26T01:58:04.736Z,28.00
2023-10-26T02:00:35.023Z,28.30
2023-10-26T02:03:05.250Z,28.50
2023-10-26T02:05:37.079Z,28.40
2023-10-26T02:08:07.810Z,28.30
2023-10-26T02:10:39.258Z,28.40
2023-10-26T02:13:15.501Z,28.40
2023-10-26T02:15:46.634Z,28.50
2023-10-26T02:18:16.871Z,28.70
2023-10-26T02:20:47.559Z,28.80
2023-10-26T02:23:17.751Z,28.90
2023-10-26T02:25:48.045Z,29.10
2023-10-26T02:28:22.618Z,29.10
2023-10-26T02:30:52.923Z,29.30
2023-10-26T02:33:22.700Z,29.40
2023-10-26T02:35:53.028Z,29.30
2023-10-26T02:38:23.116Z,29.30
2023-10-26T02:40:56.191Z,29.20
2023-10-26T02:43:26.822Z,29.20
2023-10-26T02:46:16.746Z,29.10
2023-10-26T02:48:47.137Z,29.00
2023-10-26T02:51:18.120Z,29.20
2023-10-26T02:53:48.735Z,29.20
2023-10-26T02:56:19.167Z,29.20
2023-10-26T02:58:51.195Z,29.20
2023-10-26T03:01:22.852Z,29.20
2023-10-26T03:03:54.190Z,29.20
2023-10-26T03:06:24.859Z,29.10
2023-10-26T03:08:55.538Z,29.10
2023-10-26T03:11:26.580Z,29.20
2023-10-26T03:13:58.427Z,29.40
2023-10-26T03:16:29.525Z,29.60
2023-10-26T03:18:59.587Z,29.70
2023-10-26T03:21:30.852Z,29.80
2023-10-26T03:24:01.187Z,29.80
2023-10-26T03:26:30.906Z,29.90
2023-10-26T03:29:04.802Z,30.10
2023-10-26T03:31:36.522Z,30.40
2023-10-26T03:34:07.177Z,30.60
2023-10-26T03:36:38.775Z,30.60
2023-10-26T03:39:09.322Z,30.60
2023-10-26T03:41:39.374Z,30.90
2023-10-26T03:44:11.192Z,31.10
2023-10-26T03:46:43.203Z,31.20
2023-10-26T03:49:13.642Z,31.50
2023-10-26T03:51:44.362Z,31.50
2023-10-26T03:54:15.980Z,31.30
2023-10-26T03:56:48.964Z,31.10
2023-10-26T03:59:21.240Z,31.10
2023-10-26T04:01:51.618Z,31.10
2023-10-26T04:04:21.736Z,31.00
2023-10-26T04:06:52.234Z,30.90
2023-10-26T04:09:21.991Z,30.90
2023-10-26T04:11:52.571Z,30.80
2023-10-26T04:14:22.597Z,31.30
2023-10-26T04:16:54.145Z,31.40
2023-10-26T04:19:24.468Z,31.10
2023-10-26T04:21:54.203Z,31.00
2023-10-26T04:24:24.494Z,31.30
2023-10-26T04:26:54.696Z,31.70
2023-10-26T04:29:24.672Z,31.80
2023-10-26T04:31:54.874Z,31.70
2023-10-26T04:34:25.792Z,31.40
2023-10-26T04:36:56.126Z,31.50
2023-10-26T04:39:26.269Z,31.90
2023-10-26T04:41:56.669Z,32.20
2023-10-26T04:44:27.238Z,32.40
2023-10-26T04:46:57.385Z,32.40
2023-10-26T04:49:30.846Z,32.50
2023-10-26T04:52:00.698Z,32.60
2023-10-26T04:54:30.599Z,32.30
2023-10-26T04:57:00.782Z,32.00
2023-10-26T04:59:30.539Z,32.20
2023-10-26T05:02:01.549Z,32.20
2023-10-26T05:04:31.674Z,31.80
2023-10-26T05:07:02.245Z,31.80
2023-10-26T05:09:35.539Z,31.90
2023-10-26T05:12:06.987Z,31.90
2023-10-26T05:14:37.592Z,31.90
2023-10-26T05:17:08.575Z,31.80
2023-10-26T05:19:38.957Z,31.60
2023-10-26T05:22:08.988Z,31.70
2023-10-26T05:24:43.883Z,32.30
2023-10-26T05:27:14.070Z,32.20
2023-10-26T05:29:43.832Z,32.20
2023-10-26T05:32:13.890Z,32.00
2023-10-26T05:34:43.738Z,31.90
2023-10-26T05:37:13.804Z,32.00
2023-10-26T05:39:43.539Z,32.00
2023-10-26T05:42:13.405Z,31.70
2023-10-26T05:44:44.331Z,31.80
2023-10-26T05:47:14.560Z,32.00
2023-10-26T05:49:44.558Z,32.10
2023-10-26T05:52:14.591Z,32.30
2023-10-26T05:54:44.623Z,32.40
2023-10-26T05:57:15.066Z,32.50
2023-10-26T05:59:44.760Z,32.40
2023-10-26T06:02:14.733Z,32.20
2023-10-26T06:04:44.612Z,32.10
2023-10-26T06:07:14.774Z,32.00
2023-10-26T06:09:44.492Z,32.10
2023-10-26T06:12:14.977Z,32.50
2023-10-26T06:14:44.801Z,32.40
2023-10-26T06:17:15.055Z,32.20
2023-10-26T06:19:45.045Z,32.10
2023-10-26T06:22:15.081Z,32.00
2023-10-26T06:24:46.966Z,32.30
2023-10-26T06:27:17.032Z,32.20
2023-10-26T06:29:47.449Z,32.20
2023-10-26T06:32:17.416Z,32.30
2023-10-26T06:34:48.264Z,32.90
2023-10-26T06:37:18.391Z,33.20
2023-10-26T06:39:48.152Z,33.30
2023-10-26T06:42:18.311Z,33.40
2023-10-26T06:44:53.396Z,33.10
2023-10-26T06:47:23.727Z,32.70
2023-10-26T06:49:53.723Z,33.30
2023-10-26T06:52:23.548Z,33.80
2023-10-26T06:54:53.845Z,34.20
2023-10-26T06:57:23.632Z,34.10
2023-10-26T06:59:53.690Z,34.10
2023-10-26T07:02:23.473Z,34.10
2023-10-26T07:04:53.640Z,34.20
2023-10-26T07:07:23.468Z,34.40
2023-10-26T07:09:56.553Z,34.50
2023-10-26T07:12:27.223Z,34.70
2023-10-26T07:14:57.167Z,34.60
2023-10-26T07:17:27.445Z,34.70
2023-10-26T07:19:57.178Z,34.70
2023-10-26T07:22:28.240Z,34.90
2023-10-26T07:24:59.313Z,35.00
2023-10-26T07:27:29.311Z,35.10
2023-10-26T07:29:59.240Z,34.50
2023-10-26T07:32:29.260Z,34.50
2023-10-26T07:34:59.657Z,34.30
2023-10-26T07:37:30.215Z,34.00
2023-10-26T07:40:28.914Z,34.40
2023-10-26T07:42:51.120Z,34.40
2023-10-26T07:45:21.385Z,34.50
2023-10-26T07:47:51.168Z,34.60
2023-10-26T07:50:22.697Z,34.50
2023-10-26T07:52:52.711Z,34.60
2023-10-26T07:55:22.502Z,34.60
2023-10-26T07:57:52.709Z,34.60
2023-10-26T08:00:22.490Z,34.60
2023-10-26T08:02:52.623Z,34.50
2023-10-26T08:05:24.723Z,34.60
2023-10-26T08:07:55.281Z,34.70
2023-10-26T08:10:27.359Z,34.70
2023-10-26T08:12:57.992Z,34.60
2023-10-26T08:16:30.313Z,34.30
2023-10-26T08:18:18.003Z,33.90
2023-10-26T08:20:54.251Z,34.20
2023-10-26T08:23:24.849Z,34.10
2023-10-26T08:25:54.728Z,33.90
2023-10-26T08:28:24.679Z,33.90
2023-10-26T08:30:56.943Z,33.80
2023-10-26T08:33:26.886Z,33.70
2023-10-26T08:35:56.575Z,33.70
2023-10-26T08:38:26.591Z,33.60
2023-10-26T08:40:57.631Z,33.50
2023-10-26T08:43:27.924Z,33.50
2023-10-26T08:46:02.897Z,33.30
2023-10-26T08:48:37.333Z,33.00
2023-10-26T08:51:07.579Z,32.70
2023-10-26T08:53:38.342Z,32.40
2023-10-26T08:56:11.113Z,32.50
2023-10-26T08:58:41.712Z,32.20
2023-10-26T09:01:11.681Z,32.50
2023-10-26T09:03:41.432Z,32.40
2023-10-26T09:06:11.428Z,32.30
2023-10-26T09:08:41.169Z,32.20
2023-10-26T09:11:30.797Z,32.30
2023-10-26T09:14:22.049Z,32.30
2023-10-26T09:16:53.029Z,32.30
2023-10-26T09:19:23.176Z,32.40
2023-10-26T09:22:02.017Z,32.40
2023-10-26T09:24:32.415Z,32.40
2023-10-26T09:27:03.322Z,32.30
2023-10-26T09:29:44.297Z,32.10
2023-10-26T09:32:14.821Z,32.00
2023-10-26T09:34:48.295Z,31.90
2023-10-26T09:37:19.797Z,32.10
2023-10-26T09:40:04.481Z,32.00
2023-10-26T09:42:41.525Z,32.00
2023-10-26T09:45:11.790Z,31.60
2023-10-26T09:47:42.309Z,31.30
2023-10-26T09:50:12.847Z,31.00
2023-10-26T09:52:44.949Z,30.70
2023-10-26T09:55:15.066Z,30.40
2023-10-26T09:58:01.238Z,30.20
2023-10-26T10:00:36.620Z,29.80
2023-10-26T10:03:19.221Z,29.60
2023-10-26T10:05:50.310Z,29.40
2023-10-26T10:08:59.412Z,29.40
2023-10-26T10:11:29.651Z,29.40
2023-10-26T10:13:59.463Z,29.40
2023-10-26T10:16:54.384Z,29.20
2023-10-26T10:19:30.044Z,29.30
2023-10-26T10:22:01.759Z,29.40
2023-10-26T10:24:54.460Z,29.20
2023-10-26T10:27:25.190Z,28.90
2023-10-26T10:29:59.243Z,28.20
2023-10-26T10:32:50.891Z,27.90
2023-10-26T10:35:45.945Z,27.90
2023-10-26T10:38:23.995Z,27.70
2023-10-26T10:41:17.266Z,26.70
2023-10-26T10:43:49.230Z,26.30
2023-10-26T10:46:26.299Z,26.30
2023-10-26T10:49:11.077Z,26.60
2023-10-26T10:51:43.051Z,27.10
2023-10-26T10:54:34.575Z,27.60
2023-10-26T10:57:08.267Z,28.00
2023-10-26T10:59:38.640Z,27.90
2023-10-26T11:02:14.016Z,27.90
2023-10-26T11:05:15.675Z,28.10
2023-10-26T11:07:49.702Z,27.90
2023-10-26T11:10:21.365Z,27.50
2023-10-26T11:12:54.248Z,27.30
2023-10-26T11:15:36.737Z,27.30
2023-10-26T11:18:10.240Z,27.30
2023-10-26T11:20:43.042Z,27.40
2023-10-26T11:23:17.571Z,27.30
2023-10-26T11:25:48.053Z,27.40
2023-10-26T11:28:18.027Z,27.60
2023-10-26T11:30:54.376Z,27.90
2023-10-26T11:33:45.085Z,27.80
2023-10-26T11:36:16.560Z,27.80
2023-10-26T11:38:52.038Z,27.80
2023-10-26T11:41:31.010Z,27.90
2023-10-26T11:44:01.255Z,27.80
2023-10-26T11:46:39.780Z,27.90
2023-10-26T11:49:09.903Z,28.00
2023-10-26T11:51:44.816Z,27.50
2023-10-26T11:54:20.939Z,27.70
2023-10-26T11:56:50.666Z,28.00
2023-10-26T11:59:20.565Z,28.00
2023-10-26T12:01:50.291Z,27.90
2023-10-26T12:04:23.263Z,27.60
2023-10-26T12:06:53.204Z,27.40
2023-10-26T12:09:23.995Z,27.20
2023-10-26T12:11:54.727Z,26.80
2023-10-26T12:14:25.576Z,27.00
2023-10-26T12:16:55.943Z,27.10
2023-10-26T12:19:26.819Z,27.00
2023-10-26T12:21:57.939Z,26.90
2023-10-26T12:24:29.414Z,27.00
2023-10-26T12:26:59.710Z,26.80
2023-10-26T12:29:29.674Z,27.00
2023-10-26T12:32:00.438Z,26.90
2023-10-26T12:34:32.285Z,27.00
2023-10-26T12:37:02.150Z,27.00
2023-10-26T12:39:32.107Z,27.10
2023-10-26T12:42:02.454Z,27.30
2023-10-26T12:44:32.623Z,27.30
2023-10-26T12:47:02.410Z,27.30
2023-10-26T12:49:32.323Z,27.10
2023-10-26T12:52:03.831Z,26.70
2023-10-26T12:54:34.993Z,27.10
2023-10-26T12:57:05.010Z,27.40
2023-10-26T12:59:34.830Z,27.10
2023-10-26T13:02:04.810Z,27.00
2023-10-26T13:04:36.145Z,26.90
2023-10-26T13:07:06.554Z,27.00
2023-10-26T13:09:36.546Z,27.20
2023-10-26T13:12:06.893Z,27.40
2023-10-26T13:14:36.694Z,27.50
2023-10-26T13:17:08.632Z,27.40
2023-10-26T13:19:39.338Z,27.20
2023-10-26T13:22:11.043Z,27.20
2023-10-26T13:24:44.064Z,27.40
2023-10-26T13:27:14.317Z,27.40
2023-10-26T13:29:44.199Z,27.40
2023-10-26T13:32:14.621Z,27.50
2023-10-26T13:34:44.921Z,27.40
2023-10-26T13:37:15.513Z,27.40
2023-10-26T13:39:45.547Z,27.10
2023-10-26T13:42:15.743Z,27.00
2023-10-26T13:44:46.452Z,26.90
2023-10-26T13:47:16.641Z,27.00
2023-10-26T13:49:46.544Z,27.10
2023-10-26T13:52:17.273Z,26.90
2023-10-26T13:54:47.930Z,26.80
2023-10-26T13:57:18.562Z,26.70
2023-10-26T13:59:51.690Z,26.60
2023-10-26T14:02:23.014Z,26.70
2023-10-26T14:04:53.697Z,26.70
2023-10-26T14:07:24.475Z,26.70
2023-10-26T14:09:55.672Z,26.70
2023-10-26T14:12:26.332Z,26.60
2023-10-26T14:14:56.273Z,26.80
2023-10-26T14:17:30.550Z,27.10
2023-10-26T14:20:05.154Z,27.10
2023-10-26T14:22:36.477Z,27.00
2023-10-26T14:25:08.754Z,26.90
2023-10-26T14:27:39.754Z,26.70
2023-10-26T14:30:11.588Z,26.60
2023-10-26T14:32:43.747Z,26.80
2023-10-26T14:35:14.491Z,26.60
2023-10-26T14:37:51.538Z,26.60
2023-10-26T14:40:22.407Z,26.60
2023-10-26T14:42:52.577Z,26.60
2023-10-26T14:45:28.109Z,26.60
2023-10-26T14:48:00.300Z,26.50
2023-10-26T14:50:30.892Z,26.70
2023-10-26T14:53:01.401Z,27.00
2023-10-26T14:55:31.929Z,27.10
2023-10-26T14:58:02.934Z,27.00
2023-10-26T15:00:33.464Z,26.70
2023-10-26T15:03:05.024Z,26.50
2023-10-26T15:05:41.996Z,26.70
2023-10-26T15:08:12.324Z,26.80
2023-10-26T15:10:49.987Z,26.90
2023-10-26T15:13:21.703Z,26.80
2023-10-26T15:16:00.709Z,26.80
2023-10-26T15:18:32.980Z,27.00
2023-10-26T15:21:08.445Z,27.10
2023-10-26T15:23:38.952Z,27.00
2023-10-26T15:26:11.345Z,26.90
2023-10-26T15:28:41.940Z,26.90
2023-10-26T15:31:14.158Z,27.00
2023-10-26T15:33:44.794Z,26.80
2023-10-26T15:36:15.228Z,26.60
2023-10-26T15:38:45.348Z,26.60
2023-10-26T15:41:15.860Z,26.50
2023-10-26T15:43:45.906Z,26.60
2023-10-26T15:46:16.164Z,26.70
2023-10-26T15:49:30.874Z,26.80
2023-10-26T15:51:36.717Z,26.90
2023-10-26T15:54:07.287Z,26.90
2023-10-26T15:56:37.541Z,27.00
2023-10-26T15:59:07.668Z,27.00
2023-10-26T16:01:37.855Z,27.00
2023-10-26T16:04:09.128Z,26.90
2023-10-26T16:06:39.336Z,26.80
2023-10-26T16:09:09.023Z,26.70
2023-10-26T16:11:39.242Z,26.60
2023-10-26T16:14:10.003Z,26.40
2023-10-26T16:16:40.673Z,26.50
2023-10-26T16:19:12.180Z,26.70
2023-10-26T16:21:42.679Z,26.80
2023-10-26T16:24:12.943Z,26.80
2023-10-26T16:26:44.152Z,26.90
2023-10-26T16:29:14.400Z,26.90
2023-10-26T16:31:44.137Z,26.90
2023-10-26T16:34:14.386Z,26.80
2023-10-26T16:36:44.571Z,26.80
2023-10-26T16:39:14.741Z,26.60
2023-10-26T16:41:44.700Z,26.50
2023-10-26T16:44:15.061Z,26.40
2023-10-26T16:46:45.075Z,26.20
2023-10-26T16:49:15.366Z,26.30
2023-10-26T16:51:45.131Z,26.50
2023-10-26T16:54:15.619Z,26.50
2023-10-26T16:56:45.377Z,26.50
2023-10-26T16:59:15.557Z,26.50
2023-10-26T17:01:45.418Z,26.50
2023-10-26T17:04:15.463Z,26.40
2023-10-26T17:06:45.474Z,26.30
2023-10-26T17:09:15.550Z,26.20
2023-10-26T17:11:45.287Z,26.10
2023-10-26T17:14:15.286Z,26.10
2023-10-26T17:16:45.416Z,26.00
2023-10-26T17:19:16.764Z,26.20
2023-10-26T17:21:47.118Z,26.40
2023-10-26T17:24:17.324Z,26.50
2023-10-26T17:26:47.953Z,26.60
2023-10-26T17:29:18.156Z,26.70
2023-10-26T17:31:48.737Z,26.70
2023-10-26T17:34:18.831Z,26.60
2023-10-26T17:36:49.005Z,26.30
2023-10-26T17:39:19.529Z,26.30
2023-10-26T17:41:49.585Z,26.30
2023-10-26T17:44:19.662Z,26.20
2023-10-26T17:46:49.528Z,26.30
2023-10-26T17:49:19.774Z,26.40
2023-10-26T17:51:49.516Z,26.40
2023-10-26T17:54:20.191Z,26.40
2023-10-26T17:56:50.938Z,26.50
2023-10-26T17:59:22.221Z,26.40
2023-10-26T18:01:52.449Z,26.40
2023-10-26T18:04:23.054Z,26.30
2023-10-26T18:06:53.422Z,26.20
2023-10-26T18:09:23.240Z,26.20
2023-10-26T18:11:53.243Z,26.30
2023-10-26T18:14:24.859Z,26.30
2023-10-26T18:16:56.085Z,26.30
2023-10-26T18:19:26.328Z,26.30
2023-10-26T18:21:56.420Z,26.30
2023-10-26T18:24:26.740Z,26.30
2023-10-26T18:26:56.747Z,26.30
2023-10-26T18:29:27.500Z,26.30
2023-10-26T18:32:01.301Z,26.30
2023-10-26T18:34:31.324Z,26.30
2023-10-26T18:37:01.113Z,26.30
2023-10-26T18:39:31.159Z,26.30
2023-10-26T18:42:00.927Z,26.20
2023-10-26T18:44:31.169Z,26.20
2023-10-26T18:47:01.674Z,26.30
2023-10-26T18:49:31.689Z,26.20
2023-10-26T18:52:01.945Z,26.20
2023-10-26T18:54:32.480Z,26.20
2023-10-26T18:57:02.873Z,26.10
2023-10-26T18:59:33.027Z,25.90
2023-10-26T19:02:03.302Z,26.00
2023-10-26T19:04:34.638Z,26.10
2023-10-26T19:07:09.202Z,26.20
2023-10-26T19:09:39.212Z,26.30
2023-10-26T19:12:09.167Z,26.30
2023-10-26T19:14:39.346Z,26.30
2023-10-26T19:17:09.548Z,26.30
2023-10-26T19:19:40.077Z,26.00
2023-10-26T19:22:11.386Z,25.90
2023-10-26T19:24:41.370Z,25.80
2023-10-26T19:27:11.460Z,25.80
2023-10-26T19:29:41.518Z,26.00
2023-10-26T19:32:11.950Z,26.10
2023-10-26T19:34:42.170Z,26.10
2023-10-26T19:37:11.992Z,26.20
2023-10-26T19:39:42.241Z,26.20
2023-10-26T19:42:11.996Z,26.20
2023-10-26T19:44:42.166Z,25.90
2023-10-26T19:47:12.712Z,25.80
2023-10-26T19:49:43.292Z,25.90
2023-10-26T19:52:15.956Z,25.90
2023-10-26T19:54:46.879Z,26.00
2023-10-26T19:57:19.114Z,26.00
2023-10-26T19:59:49.475Z,26.10
2023-10-26T20:02:19.224Z,26.10
2023-10-26T20:04:49.124Z,26.00
2023-10-26T20:07:18.924Z,26.00
2023-10-26T20:09:49.119Z,26.00
2023-10-26T20:12:18.898Z,26.00
2023-10-26T20:14:49.208Z,25.80
2023-10-26T20:17:19.689Z,25.70
2023-10-26T20:19:50.157Z,25.80
2023-10-26T20:22:20.169Z,25.80
2023-10-26T20:24:50.933Z,25.90
2023-10-26T20:27:21.132Z,26.00
2023-10-26T20:29:52.122Z,25.90
2023-10-26T20:32:22.534Z,25.90
2023-10-26T20:34:52.677Z,26.00
2023-10-26T20:37:22.725Z,25.90
2023-10-26T20:39:52.412Z,25.90
2023-10-26T20:42:23.627Z,25.90
2023-10-26T20:44:57.671Z,25.90
2023-10-26T20:47:28.203Z,25.90
2023-10-26T20:49:58.342Z,25.80
2023-10-26T20:52:29.778Z,25.60
2023-10-26T20:55:00.202Z,25.60
2023-10-26T20:57:30.335Z,25.70
2023-10-26T21:00:00.629Z,25.80
2023-10-26T21:02:30.330Z,25.80
2023-10-26T21:05:03.624Z,25.80
2023-10-26T21:07:33.532Z,25.60
2023-10-26T21:10:03.363Z,25.50
2023-10-26T21:12:34.168Z,25.60
2023-10-26T21:15:04.445Z,25.60
2023-10-26T21:17:36.697Z,25.60
2023-10-26T21:20:10.712Z,25.70
2023-10-26T21:22:41.523Z,25.80
2023-10-26T21:25:11.949Z,25.80
2023-10-26T21:27:41.999Z,25.70
2023-10-26T21:30:12.336Z,25.70
2023-10-26T21:32:42.325Z,25.60
2023-10-26T21:35:12.669Z,25.60
2023-10-26T21:37:42.590Z,25.60
2023-10-26T21:40:14.093Z,25.60
2023-10-26T21:42:44.914Z,25.70
2023-10-26T21:45:15.230Z,25.80
2023-10-26T21:47:45.363Z,25.80
2023-10-26T21:50:15.777Z,25.90
2023-10-26T21:52:45.481Z,25.80
2023-10-26T21:55:16.510Z,25.80
2023-10-26T21:57:47.044Z,25.80
2023-10-26T22:00:18.087Z,25.80
2023-10-26T22:02:48.205Z,25.80
2023-10-26T22:05:18.429Z,25.80
2023-10-26T22:07:48.729Z,25.70
2023-10-26T22:10:20.334Z,25.60
2023-10-26T22:12:51.121Z,25.70
2023-10-26T22:15:21.157Z,25.60
2023-10-26T22:17:52.501Z,25.60
2023-10-26T22:20:22.759Z,25.70
2023-10-26T22:22:52.908Z,25.70
2023-10-26T22:25:23.100Z,25.70
2023-10-26T22:27:53.400Z,25.70
2023-10-26T22:30:23.439Z,25.70
2023-10-26T22:32:54.132Z,25.50
2023-10-26T22:35:24.649Z,25.50
2023-10-26T22:37:54.739Z,25.40
2023-10-26T22:40:25.094Z,25.50
2023-10-26T22:42:54.867Z,25.50
2023-10-26T22:45:25.060Z,25.60
2023-10-26T22:47:55.370Z,25.60
2023-10-26T22:50:25.395Z,25.70
2023-10-26T22:52:55.747Z,25.70
2023-10-26T22:55:25.975Z,25.70
2023-10-26T22:57:55.776Z,25.70
2023-10-26T23:00:26.424Z,25.70
2023-10-26T23:02:56.139Z,25.70
2023-10-26T23:05:26.176Z,25.50
2023-10-26T23:07:57.849Z,25.50
2023-10-26T23:10:28.383Z,25.60
2023-10-26T23:12:58.106Z,25.60
2023-10-26T23:15:28.036Z,25.50
2023-10-26T23:17:57.780Z,25.50
2023-10-26T23:20:28.105Z,25.60
2023-10-26T23:22:58.028Z,25.60
2023-10-26T23:25:28.116Z,25.60
2023-10-26T23:27:57.913Z,25.70
2023-10-26T23:30:27.793Z,25.70
2023-10-26T23:33:00.105Z,25.70
2023-10-26T23:35:33.591Z,25.70
2023-10-26T23:38:03.663Z,25.70
2023-10-26T23:40:34.935Z,25.70
2023-10-26T23:43:05.149Z,25.80
2023-10-26T23:45:34.956Z,25.80
2023-10-26T23:48:04.903Z,25.70
2023-10-26T23:50:35.108Z,25.70
2023-10-26T23:53:05.225Z,25.80
2023-10-26T23:55:35.276Z,25.80
2023-10-26T23:58:05.203Z,25.90
